Time;durP1;ratioP1;P1;durP2;ratioP2;P2;SDS_P1;SDS_P2;PMS_P1;PMS_P2;Temp;Humidity;BMP_temperature;BMP_pressure;BME280_temperature;BME280_humidity;BME280_pressure;Samples;Min_cycle;Max_cycle;Signal;HPM_P1;HPM_P2
2021/12/28 00:00:56;;;;;;;28.77;9.33;;;;;;;-143.84;94.42;43783.03;5010805;28;20445;-76
2021/12/28 00:03:24;;;;;;;20.33;8.77;;;;;;;-143.84;94.50;43767.81;5010525;28;20478;-76
2021/12/28 00:05:51;;;;;;;34.17;10.67;;;;;;;-143.84;94.42;43786.84;5011690;28;20475;-75
2021/12/28 00:08:19;;;;;;;26.43;11.93;;;;;;;-143.84;94.01;43824.91;5011161;28;20509;-75
2021/12/28 00:10:48;;;;;;;18.63;10.70;;;;;;;-143.84;93.07;43929.59;5011855;28;20577;-75
2021/12/28 00:13:16;;;;;;;21.23;11.00;;;;;;;-143.84;92.39;44064.75;5011874;28;20445;-76
2021/12/28 00:16:02;;;;;;;12.97;9.30;;;;;;;-143.84;91.47;44276.06;5012048;28;20965;-75
2021/12/28 00:18:29;;;;;;;16.27;9.93;;;;;;;-143.84;90.21;44603.53;5012016;28;20784;-75
2021/12/28 00:21:01;;;;;;;17.47;10.60;;;;;;;-143.84;90.27;44672.06;5011468;28;20486;-76
2021/12/28 00:23:35;;;;;;;13.67;9.77;;;;;;;-143.84;90.35;44630.19;5011165;28;20455;-76
2021/12/28 00:26:06;;;;;;;16.20;9.87;;;;;;;-143.84;89.71;44698.72;5012442;28;20570;-76
2021/12/28 00:28:33;;;;;;;15.87;9.60;;;;;;;-143.84;90.09;44677.78;5015501;28;20991;-76
2021/12/28 00:31:02;;;;;;;12.40;8.80;;;;;;;-143.84;90.19;44687.28;5015173;28;20442;-76
2021/12/28 00:33:29;;;;;;;23.70;9.43;;;;;;;-143.84;90.35;44694.91;5015277;28;20460;-76
2021/12/28 00:35:56;;;;;;;15.27;8.67;;;;;;;-143.84;90.22;44700.63;5015328;28;20515;-76
2021/12/28 00:38:26;;;;;;;14.17;8.57;;;;;;;-143.84;90.09;44710.16;5015280;28;20448;-76
2021/12/28 00:40:55;;;;;;;11.03;7.33;;;;;;;-143.84;89.99;44752.03;5015331;28;20444;-76
2021/12/28 00:43:24;;;;;;;9.27;8.20;;;;;;;-143.84;90.65;44662.53;5013870;28;20450;-74
2021/12/28 00:45:52;;;;;;;11.60;8.10;;;;;;;-143.84;91.06;44628.28;5012482;28;20480;-74
2021/12/28 00:48:19;;;;;;;11.37;8.23;;;;;;;-143.84;91.65;44496.91;5012311;28;20441;-74
2021/12/28 00:50:47;;;;;;;12.03;9.17;;;;;;;-143.84;91.08;44620.66;5012289;28;20478;-74
2021/12/28 00:53:14;;;;;;;11.10;8.63;;;;;;;-143.84;91.44;44538.78;5012563;28;20503;-74
2021/12/28 00:55:42;;;;;;;15.27;9.70;;;;;;;-143.84;91.08;44639.69;5012516;28;20447;-74
2021/12/28 00:58:09;;;;;;;11.00;8.37;;;;;;;-143.84;91.29;44626.38;5012345;28;20435;-74
2021/12/28 01:00:40;;;;;;;9.97;8.57;;;;;;;-143.84;92.20;44495.00;5012316;28;20476;-74
2021/12/28 01:03:10;;;;;;;14.23;9.83;;;;;;;-143.84;92.53;44378.88;5012100;28;20824;-74
2021/12/28 01:05:38;;;;;;;8.30;7.00;;;;;;;-143.84;93.63;44116.16;5012270;28;20478;-74
2021/12/28 01:08:07;;;;;;;8.47;7.03;;;;;;;-143.84;94.42;43967.69;5012302;28;20443;-74
2021/12/28 01:10:37;;;;;;;8.37;7.50;;;;;;;-143.84;95.60;43868.69;5012012;28;20443;-74
2021/12/28 01:13:04;;;;;;;9.40;8.40;;;;;;;-143.84;95.57;43821.09;5011995;28;20528;-74
2021/12/28 01:15:33;;;;;;;8.10;7.30;;;;;;;-143.84;96.36;43817.31;5012201;28;20448;-74
2021/12/28 01:18:01;;;;;;;9.23;7.33;;;;;;;-143.84;96.67;43815.41;5011753;28;20448;-74
2021/12/28 01:20:29;;;;;;;8.03;7.27;;;;;;;-143.84;96.81;43807.78;5011558;28;20490;-74
2021/12/28 01:22:57;;;;;;;10.23;7.00;;;;;;;-143.84;96.96;43819.19;5011970;28;20800;-74
2021/12/28 01:25:24;;;;;;;8.77;7.07;;;;;;;-143.84;97.43;43775.41;5011555;28;21003;-73
2021/12/28 01:27:53;;;;;;;8.93;7.80;;;;;;;-143.84;97.65;43807.78;5011782;28;20452;-73
2021/12/28 01:30:22;;;;;;;9.03;7.60;;;;;;;-143.84;97.79;43790.66;5011643;28;20461;-74
2021/12/28 01:32:50;;;;;;;12.53;7.63;;;;;;;-143.84;98.10;43842.03;5011873;28;20502;-73
2021/12/28 01:35:20;;;;;;;13.87;7.43;;;;;;;-143.84;98.24;43830.63;5011382;28;20449;-73
2021/12/28 01:37:48;;;;;;;13.00;7.50;;;;;;;-143.84;98.49;43864.88;5015935;28;20464;-73
2021/12/28 01:40:21;;;;;;;11.43;7.70;;;;;;;-143.84;98.63;43834.44;5031432;28;20514;-73
2021/12/28 01:42:59;;;;;;;9.50;7.23;;;;;;;-143.84;98.21;43849.66;5031253;28;20547;-73
2021/12/28 01:45:43;;;;;;;10.23;8.10;;;;;;;-143.84;98.53;43807.78;5031115;28;20486;-73
2021/12/28 01:48:12;;;;;;;9.93;7.97;;;;;;;-143.84;98.28;43823.00;5031421;28;20439;-73
2021/12/28 01:50:41;;;;;;;8.23;7.27;;;;;;;-143.84;97.92;43830.63;5031195;28;20436;-73
2021/12/28 01:53:09;;;;;;;8.53;7.77;;;;;;;-143.84;97.85;43828.72;5030934;28;20456;-73
2021/12/28 01:55:40;;;;;;;13.63;7.27;;;;;;;-143.84;98.48;43845.84;5030873;28;21140;-73
2021/12/28 01:58:08;;;;;;;7.87;7.00;;;;;;;-143.84;97.98;43819.19;5030963;28;20448;-74
2021/12/28 02:00:35;;;;;;;9.77;7.33;;;;;;;-143.84;98.06;43800.16;5030922;28;20443;-74
2021/12/28 02:03:07;;;;;;;6.43;5.80;;;;;;;-143.84;98.38;43813.50;5030876;28;20447;-73
2021/12/28 02:05:34;;;;;;;8.13;6.30;;;;;;;-143.84;99.10;43828.72;5030880;28;20543;-73
2021/12/28 02:08:03;;;;;;;9.60;7.13;;;;;;;-143.84;99.00;43849.66;5030785;28;20439;-73
2021/12/28 02:10:31;;;;;;;6.97;6.37;;;;;;;-143.84;99.04;43832.53;5030839;28;20486;-73
2021/12/28 02:12:58;;;;;;;6.40;5.73;;;;;;;-143.84;98.56;43813.50;5013198;28;20445;-73
2021/12/28 02:15:25;;;;;;;7.70;6.90;;;;;;;-143.84;98.37;43845.84;5030891;28;20430;-73
2021/12/28 02:17:52;;;;;;;7.80;7.10;;;;;;;-143.84;98.26;43805.88;5030495;28;20439;-73
2021/12/28 02:20:22;;;;;;;9.13;7.00;;;;;;;-143.84;98.28;43836.34;5030295;28;21066;-73
2021/12/28 02:22:49;;;;;;;7.50;6.70;;;;;;;-143.84;98.72;43813.50;5030625;28;20462;-73
2021/12/28 02:25:18;;;;;;;7.33;5.93;;;;;;;-143.84;98.68;43838.25;5030308;28;21075;-73
2021/12/28 02:27:45;;;;;;;6.67;5.97;;;;;;;-143.84;98.71;43840.13;5030395;28;20454;-73
2021/12/28 02:30:16;;;;;;;6.73;6.20;;;;;;;-143.84;98.94;43823.00;5029724;28;20477;-73
2021/12/28 02:32:44;;;;;;;11.00;7.57;;;;;;;-143.84;98.56;43819.19;5029412;28;20852;-73
2021/12/28 02:35:14;;;;;;;10.90;8.03;;;;;;;-143.84;98.15;43807.78;5030450;28;20477;-73
2021/12/28 02:37:43;;;;;;;15.30;8.67;;;;;;;-143.84;98.28;43807.78;5030427;28;21010;-73
2021/12/28 02:40:14;;;;;;;8.33;6.67;;;;;;;-143.84;98.29;43836.34;5029912;28;20465;-73
2021/12/28 02:42:42;;;;;;;8.37;7.57;;;;;;;-143.84;98.50;43830.63;5030337;28;20855;-73
2021/12/28 02:45:12;;;;;;;7.43;6.63;;;;;;;-143.84;98.26;43840.13;5030019;28;20851;-73
2021/12/28 02:47:42;;;;;;;5.30;4.80;;;;;;;-143.84;98.17;43826.81;5029804;28;20454;-73
2021/12/28 02:50:13;;;;;;;6.50;5.90;;;;;;;-143.84;98.97;43830.63;5029404;28;20497;-73
2021/12/28 02:52:42;;;;;;;5.93;5.53;;;;;;;-143.84;97.92;43796.34;5029732;28;20859;-73
2021/12/28 02:55:13;;;;;;;5.27;4.90;;;;;;;-143.84;97.83;43823.00;5030104;28;20481;-73
2021/12/28 02:57:47;;;;;;;6.43;5.60;;;;;;;-143.84;98.32;43813.50;5030051;28;20431;-73
2021/12/28 03:00:29;;;;;;;5.63;5.23;;;;;;;-143.84;98.47;43830.63;5029796;28;20501;-73
2021/12/28 03:02:57;;;;;;;5.70;5.23;;;;;;;-143.84;97.86;43855.38;5029671;28;20818;-73
2021/12/28 03:05:24;;;;;;;6.90;5.30;;;;;;;-143.84;98.15;43819.19;5029463;28;20438;-73
2021/12/28 03:07:53;;;;;;;6.23;5.63;;;;;;;-143.84;98.18;43819.19;5029493;28;20454;-73
2021/12/28 03:10:21;;;;;;;6.23;5.63;;;;;;;-143.84;98.35;43857.28;5029731;28;20528;-73
2021/12/28 03:12:48;;;;;;;5.73;5.10;;;;;;;-143.84;98.65;43853.47;5029488;28;20438;-73
2021/12/28 03:15:15;;;;;;;6.00;5.40;;;;;;;-143.84;98.92;43853.47;5029719;28;20504;-74
2021/12/28 03:17:42;;;;;;;8.17;5.90;;;;;;;-143.84;98.98;43824.91;5029348;28;21079;-73
2021/12/28 03:20:13;;;;;;;6.17;5.57;;;;;;;-143.84;98.63;43838.25;5029103;28;20541;-74
2021/12/28 03:22:41;;;;;;;6.20;5.60;;;;;;;-143.84;98.69;43857.28;5029272;28;20453;-73
2021/12/28 03:25:10;;;;;;;6.10;5.60;;;;;;;-143.84;98.54;43834.44;5029322;28;20442;-74
2021/12/28 03:27:38;;;;;;;5.80;5.30;;;;;;;-143.84;98.35;43880.13;5029427;28;21362;-74
2021/12/28 03:30:08;;;;;;;16.63;6.27;;;;;;;-143.84;98.49;43819.19;5011369;28;20439;-73
2021/12/28 03:32:35;;;;;;;5.90;5.40;;;;;;;-143.84;98.20;43819.19;5029476;28;20446;-73
2021/12/28 03:35:03;;;;;;;6.80;6.10;;;;;;;-143.84;97.83;43838.25;5029150;28;20493;-73
2021/12/28 03:37:31;;;;;;;6.50;5.90;;;;;;;-143.84;98.06;43834.44;5030523;28;20533;-76
2021/12/28 03:39:58;;;;;;;6.30;5.20;;;;;;;-143.84;97.68;43813.50;5030770;28;20525;-76
2021/12/28 03:42:27;;;;;;;5.90;5.40;;;;;;;-143.84;98.05;43819.19;5031055;28;20999;-76
2021/12/28 03:44:54;;;;;;;7.57;6.60;;;;;;;-143.84;98.92;43817.31;5031066;28;20508;-76
2021/12/28 03:47:21;;;;;;;6.13;5.53;;;;;;;-143.84;98.64;43836.34;5030819;28;20470;-76
2021/12/28 03:49:48;;;;;;;6.17;5.57;;;;;;;-143.84;99.11;43874.41;5030965;28;20449;-76
2021/12/28 03:52:15;;;;;;;5.93;5.53;;;;;;;-143.84;98.07;43836.34;5030783;28;21037;-76
2021/12/28 03:54:43;;;;;;;8.60;6.07;;;;;;;-143.84;97.73;43813.50;5030797;28;20443;-76
2021/12/28 03:57:10;;;;;;;6.90;6.20;;;;;;;-143.84;97.33;43792.56;5030882;28;20484;-77
2021/12/28 03:59:39;;;;;;;8.50;6.60;;;;;;;-143.84;97.61;43826.81;5030991;28;20435;-76
2021/12/28 04:02:07;;;;;;;5.97;5.47;;;;;;;-143.84;97.60;43821.09;5030658;28;20479;-76
2021/12/28 04:04:34;;;;;;;8.60;5.60;;;;;;;-143.84;97.95;43819.19;5030401;28;20434;-76
2021/12/28 04:07:05;;;;;;;6.57;6.03;;;;;;;-143.84;97.49;43834.44;5030916;28;20956;-77
2021/12/28 04:09:58;;;;;;;6.13;5.53;;;;;;;-143.84;96.62;43857.28;5030538;28;20461;-77
2021/12/28 04:12:25;;;;;;;5.30;4.90;;;;;;;-143.84;96.09;43847.75;5030390;28;20482;-77
2021/12/28 04:14:54;;;;;;;6.00;5.50;;;;;;;-143.84;95.70;44011.47;5030471;28;20438;-76
2021/12/28 04:17:23;;;;;;;5.20;4.80;;;;;;;-143.84;95.70;43931.50;5030618;28;20450;-77
2021/12/28 04:19:50;;;;;;;6.60;6.00;;;;;;;-143.84;95.62;43929.59;5030565;28;20505;-77
2021/12/28 04:22:18;;;;;;;6.20;5.70;;;;;;;-143.84;95.79;43897.25;5030844;28;20434;-76
2021/12/28 04:24:45;;;;;;;5.40;5.00;;;;;;;-143.84;96.10;43893.44;5031048;28;20521;-76
2021/12/28 04:27:12;;;;;;;5.47;5.07;;;;;;;-143.84;95.11;44003.84;5029778;28;21200;-75
2021/12/28 04:29:40;;;;;;;6.30;5.70;;;;;;;-143.84;94.94;44053.34;5030838;28;20443;-77
2021/12/28 04:32:09;;;;;;;5.67;5.03;;;;;;;-143.84;94.83;44060.94;5031390;28;21010;-77
2021/12/28 04:34:36;;;;;;;6.50;5.90;;;;;;;-143.84;94.57;44224.66;5030540;28;20449;-76
2021/12/28 04:37:04;;;;;;;6.17;5.67;;;;;;;-143.84;94.42;44266.53;5030338;28;20443;-76
2021/12/28 04:39:31;;;;;;;6.50;5.90;;;;;;;-143.84;94.14;44180.88;5030306;28;20445;-76
2021/12/28 04:41:58;;;;;;;5.73;5.20;;;;;;;-143.84;94.35;44205.63;5030927;28;20438;-76
2021/12/28 04:44:26;;;;;;;6.60;5.93;;;;;;;-143.84;94.37;44203.72;5031081;28;20501;-76
2021/12/28 04:46:54;;;;;;;6.60;6.03;;;;;;;-143.84;94.55;44205.63;5030846;28;20471;-76
2021/12/28 04:49:25;;;;;;;6.80;6.20;;;;;;;-143.84;94.28;44209.44;5031223;28;20431;-76
2021/12/28 04:51:52;;;;;;;6.03;5.50;;;;;;;-143.84;94.65;44139.00;5030551;28;20473;-76
2021/12/28 04:54:20;;;;;;;7.17;6.23;;;;;;;-143.84;94.93;44106.63;5031005;28;20440;-75
2021/12/28 04:56:48;;;;;;;7.03;6.33;;;;;;;-143.84;95.13;44041.91;5031295;28;20431;-75
2021/12/28 04:59:17;;;;;;;7.00;6.30;;;;;;;-143.84;95.32;43982.91;5030874;28;20557;-75
2021/12/28 05:01:44;;;;;;;6.90;6.30;;;;;;;-143.84;95.26;43986.72;5029511;28;20450;-75
2021/12/28 05:04:11;;;;;;;6.60;6.03;;;;;;;-143.84;94.96;44055.25;5029737;28;20485;-75
2021/12/28 05:06:40;;;;;;;5.77;5.17;;;;;;;-143.84;94.76;44184.69;5029895;28;21007;-75
2021/12/28 05:09:09;;;;;;;6.97;6.30;;;;;;;-143.84;94.31;44207.53;5030025;28;20438;-75
2021/12/28 05:11:39;;;;;;;5.47;5.07;;;;;;;-143.84;94.45;44274.16;5030879;28;20781;-75
2021/12/28 05:14:08;;;;;;;5.40;5.00;;;;;;;-143.84;94.59;44182.78;5034366;28;21173;-74
2021/12/28 05:16:36;;;;;;;5.90;5.40;;;;;;;-143.84;94.68;44076.19;5034374;28;20442;-75
2021/12/28 05:19:05;;;;;;;6.43;5.83;;;;;;;-143.84;94.59;44116.16;5033720;28;20498;-75
2021/12/28 05:21:33;;;;;;;7.37;6.67;;;;;;;-143.84;94.51;44131.38;5033925;28;20442;-75
2021/12/28 05:24:01;;;;;;;6.80;6.20;;;;;;;-143.84;94.60;44167.56;5034155;28;20474;-75
2021/12/28 05:26:29;;;;;;;13.30;11.53;;;;;;;-143.84;94.71;44093.31;5033738;28;20470;-75
2021/12/28 05:28:57;;;;;;;6.27;5.70;;;;;;;-143.84;94.99;44078.09;5033884;28;20489;-75
2021/12/28 05:31:26;;;;;;;7.07;6.43;;;;;;;-143.84;95.24;43984.81;5033797;28;20446;-75
2021/12/28 05:33:53;;;;;;;8.77;7.87;;;;;;;-143.84;95.39;43971.47;5033594;28;20509;-75
2021/12/28 05:36:21;;;;;;;7.93;6.20;;;;;;;-143.84;95.59;43908.66;5033488;28;20446;-75
2021/12/28 05:38:48;;;;;;;6.60;6.00;;;;;;;-143.84;94.98;43982.91;5033743;28;20446;-75
2021/12/28 05:41:16;;;;;;;6.60;5.83;;;;;;;-143.84;94.28;44148.53;5033439;28;20509;-75
2021/12/28 05:43:44;;;;;;;7.03;6.33;;;;;;;-143.84;93.14;44483.56;5033418;28;20481;-75
2021/12/28 05:46:11;;;;;;;5.73;5.20;;;;;;;-143.84;93.23;44496.91;5033429;28;20971;-75
2021/12/28 05:48:38;;;;;;;5.83;5.33;;;;;;;-143.84;92.73;44634.00;5033721;28;20427;-75
2021/12/28 05:51:05;;;;;;;5.70;5.20;;;;;;;-143.84;92.74;44584.47;5033180;28;20473;-75
2021/12/28 05:53:33;;;;;;;8.07;6.10;;;;;;;-143.84;92.70;44565.44;5032833;28;20443;-75
2021/12/28 05:56:00;;;;;;;6.60;6.00;;;;;;;-143.84;92.52;44660.63;5032749;28;20508;-74
2021/12/28 05:58:28;;;;;;;6.20;5.70;;;;;;;-143.84;92.29;44702.53;5033416;28;20454;-75
2021/12/28 06:00:56;;;;;;;5.97;5.47;;;;;;;-143.84;92.30;44681.59;5033780;28;20499;-75
2021/12/28 06:03:23;;;;;;;5.50;5.00;;;;;;;-143.84;92.01;44700.63;5033508;28;20439;-75
2021/12/28 06:05:50;;;;;;;5.90;5.40;;;;;;;-143.84;92.10;44712.06;5033836;28;20925;-75
2021/12/28 06:08:17;;;;;;;5.70;5.30;;;;;;;-143.84;90.42;44900.53;5033569;28;20486;-74
2021/12/28 06:10:45;;;;;;;5.70;5.20;;;;;;;-143.84;89.84;44982.41;5033203;28;20504;-78
2021/12/28 06:13:12;;;;;;;7.87;5.60;;;;;;;-143.84;90.61;44938.63;5033270;28;21061;-79
2021/12/28 06:15:41;;;;;;;6.67;5.60;;;;;;;-143.84;90.40;44908.16;5033160;28;20443;-80
2021/12/28 06:18:08;;;;;;;6.17;5.67;;;;;;;-143.84;90.32;44910.06;5033813;28;20439;-76
2021/12/28 06:20:36;;;;;;;9.03;5.70;;;;;;;-143.84;89.28;44995.75;5032270;28;20489;-73
2021/12/28 06:23:04;;;;;;;6.37;5.87;;;;;;;-143.84;88.53;45035.75;5032717;28;20439;-73
2021/12/28 06:25:32;;;;;;;8.10;6.57;;;;;;;-143.84;88.39;45049.06;5028280;28;20470;-74
2021/12/28 06:27:59;;;;;;;6.53;5.93;;;;;;;-143.84;88.24;45041.44;5031525;28;20486;-73
2021/12/28 06:30:26;;;;;;;5.37;4.87;;;;;;;-143.84;88.60;45050.97;5030958;28;20451;-73
2021/12/28 06:32:54;;;;;;;6.07;5.47;;;;;;;-143.84;87.67;45052.88;5019272;28;20500;-73
2021/12/28 06:35:22;;;;;;;6.30;5.70;;;;;;;-143.84;87.49;45068.13;5026029;28;20439;-73
2021/12/28 06:37:49;;;;;;;5.67;5.20;;;;;;;-143.84;87.18;45073.81;5021991;28;20879;-73
2021/12/28 06:40:16;;;;;;;6.27;5.60;;;;;;;-143.84;86.96;45096.66;5017338;28;20506;-73
2021/12/28 06:42:44;;;;;;;6.30;5.77;;;;;;;-143.84;87.55;45092.88;5015744;28;20447;-73
2021/12/28 06:45:11;;;;;;;5.90;5.30;;;;;;;-143.84;87.46;45090.97;5010973;28;20451;-73
2021/12/28 06:47:39;;;;;;;7.30;6.60;;;;;;;-143.84;87.36;45081.44;5011271;28;20849;-73
2021/12/28 06:50:09;;;;;;;5.10;4.70;;;;;;;-143.84;87.28;45098.56;5010758;28;20436;-73
2021/12/28 06:52:36;;;;;;;6.83;6.13;;;;;;;-143.84;87.68;45081.44;5010218;28;20446;-73
2021/12/28 06:55:04;;;;;;;6.37;5.03;;;;;;;-143.84;87.50;45052.88;5010188;28;20934;-73
2021/12/28 06:57:31;;;;;;;5.07;4.57;;;;;;;-143.84;87.22;45110.00;5009962;28;20451;-73
2021/12/28 06:59:59;;;;;;;5.00;4.60;;;;;;;-143.84;86.48;45108.09;5010037;28;20989;-73
2021/12/28 07:02:26;;;;;;;5.97;5.47;;;;;;;-143.84;86.21;45089.06;5010204;28;21004;-73
2021/12/28 07:04:54;;;;;;;5.40;4.90;;;;;;;-143.84;86.59;45106.19;5011466;28;20458;-73
2021/12/28 07:07:23;;;;;;;6.23;5.73;;;;;;;-143.84;86.40;45110.00;5029469;28;20552;-73
2021/12/28 07:09:50;;;;;;;7.03;5.07;;;;;;;-143.84;86.36;45100.47;5016956;28;20471;-73
2021/12/28 07:12:17;;;;;;;5.80;5.27;;;;;;;-143.84;86.11;45090.97;5020603;28;20462;-73
2021/12/28 07:14:44;;;;;;;5.07;4.60;;;;;;;-143.84;86.91;45100.47;5027402;28;20968;-73
2021/12/28 07:17:11;;;;;;;7.50;5.73;;;;;;;-143.84;86.81;45096.66;5026523;28;20509;-73
2021/12/28 07:19:39;;;;;;;6.40;5.80;;;;;;;-143.84;86.89;45079.53;5022710;28;20490;-71
2021/12/28 07:22:06;;;;;;;10.47;8.97;;;;;;;-143.84;86.92;45089.06;5025201;28;20477;-73
2021/12/28 07:24:35;;;;;;;7.77;6.87;;;;;;;-143.84;85.83;45115.72;5020812;28;20454;-74
2021/12/28 07:27:02;;;;;;;5.93;5.43;;;;;;;-143.84;85.32;45110.00;5024557;28;20513;-74
2021/12/28 07:29:29;;;;;;;7.10;6.43;;;;;;;-143.84;86.07;45098.56;5024592;28;20455;-74
2021/12/28 07:31:57;;;;;;;6.97;6.37;;;;;;;-143.84;86.14;45098.56;5025107;28;20529;-74
2021/12/28 07:34:24;;;;;;;6.00;5.43;;;;;;;-143.84;85.85;45071.91;5027642;28;20464;-74
2021/12/28 07:36:51;;;;;;;7.17;5.23;;;;;;;-143.84;84.94;45117.63;5024622;28;20975;-71
2021/12/28 07:39:18;;;;;;;7.70;5.00;;;;;;;-143.84;82.92;45150.00;5028630;28;21000;-72
2021/12/28 07:41:47;;;;;;;4.60;4.20;;;;;;;-143.84;81.30;45163.31;5028303;28;20511;-74
2021/12/28 07:44:14;;;;;;;5.40;4.90;;;;;;;-143.84;80.65;45121.44;5028067;28;20460;-75
2021/12/28 07:46:41;;;;;;;5.20;4.70;;;;;;;-143.84;81.37;45144.28;5019613;28;20459;-73
2021/12/28 07:49:09;;;;;;;6.10;5.50;;;;;;;-143.84;81.27;45146.19;5026771;28;21051;-74
2021/12/28 07:51:36;;;;;;;6.10;5.60;;;;;;;-143.84;81.04;45155.69;5023289;28;20455;-74
2021/12/28 07:54:04;;;;;;;5.73;5.30;;;;;;;-143.84;80.79;45142.38;5029143;28;21249;-74
2021/12/28 07:56:31;;;;;;;6.83;5.73;;;;;;;-143.84;80.12;45142.38;5028976;28;20451;-74
2021/12/28 07:59:00;;;;;;;5.00;4.60;;;;;;;-143.84;79.09;45134.75;5024985;28;20475;-77
2021/12/28 08:01:27;;;;;;;6.13;5.63;;;;;;;-143.84;79.62;45151.91;5029846;28;21056;-76
2021/12/28 08:03:54;;;;;;;5.77;5.27;;;;;;;-143.84;79.10;45146.19;5030594;28;20440;-78
2021/12/28 08:06:22;;;;;;;5.30;4.80;;;;;;;-143.84;78.76;45153.81;5029081;28;20429;-74
2021/12/28 08:08:49;;;;;;;5.97;5.37;;;;;;;-143.84;78.29;45142.38;5029348;28;20478;-74
2021/12/28 08:11:16;;;;;;;5.70;5.20;;;;;;;-143.84;78.43;45132.84;5028854;28;20436;-74
2021/12/28 08:13:43;;;;;;;6.00;5.43;;;;;;;-143.84;78.50;45151.91;5028778;28;20438;-74
2021/12/28 08:16:13;;;;;;;5.83;5.40;;;;;;;-143.84;78.05;45134.75;5029672;28;20504;-76
2021/12/28 08:18:40;;;;;;;6.70;6.07;;;;;;;-143.84;78.43;45151.91;5023115;28;20977;-76
2021/12/28 08:21:07;;;;;;;7.57;6.23;;;;;;;-143.84;77.41;45130.94;5026961;28;20492;-74
2021/12/28 08:23:34;;;;;;;5.63;5.13;;;;;;;-143.84;76.26;45132.84;5030476;28;20441;-78
2021/12/28 08:26:02;;;;;;;7.23;5.87;;;;;;;-143.84;74.35;45125.22;5031078;28;20431;-78
2021/12/28 08:28:30;;;;;;;6.50;5.87;;;;;;;-143.84;73.96;45138.56;5030894;28;20486;-79
2021/12/28 08:30:57;;;;;;;6.40;5.90;;;;;;;-143.84;72.81;45136.66;5030667;28;20517;-78
2021/12/28 08:33:28;;;;;;;7.07;6.47;;;;;;;-143.84;72.40;45106.19;5029892;28;20518;-78
2021/12/28 08:35:56;;;;;;;6.90;5.50;;;;;;;-143.84;70.90;45153.81;5029663;28;20536;-75
2021/12/28 08:38:23;;;;;;;5.93;5.33;;;;;;;-143.84;70.02;45167.13;5010825;28;20534;-75
2021/12/28 08:40:51;;;;;;;5.40;5.00;;;;;;;-143.84;69.64;45119.53;5009074;28;20810;-75
2021/12/28 08:43:19;;;;;;;7.03;5.80;;;;;;;-143.84;69.89;45148.09;5017989;28;20522;-74
2021/12/28 08:45:46;;;;;;;9.20;5.50;;;;;;;-143.84;69.31;45134.75;5029291;28;20431;-75
2021/12/28 08:48:14;;;;;;;6.30;5.80;;;;;;;-143.84;69.08;45104.28;5030880;28;20995;-74
2021/12/28 08:50:44;;;;;;;6.80;6.13;;;;;;;-143.84;69.77;45148.09;5032392;28;20838;-74
2021/12/28 08:53:11;;;;;;;6.57;5.97;;;;;;;-143.84;70.29;45144.28;5032997;28;20434;-75
2021/12/28 08:55:39;;;;;;;7.10;6.47;;;;;;;-143.84;70.91;45113.81;5032715;28;20500;-75
2021/12/28 08:58:06;;;;;;;9.43;6.70;;;;;;;-143.84;70.28;45129.03;5032906;28;21312;-74
2021/12/28 09:00:36;;;;;;;7.53;6.27;;;;;;;-143.84;70.43;45130.94;5032401;28;20538;-75
2021/12/28 09:03:04;;;;;;;7.03;6.33;;;;;;;-143.84;70.84;45151.91;5031421;28;20454;-74
2021/12/28 09:05:32;;;;;;;5.90;5.40;;;;;;;-143.84;71.65;45167.13;5031873;28;20450;-74
2021/12/28 09:08:05;;;;;;;5.90;5.40;;;;;;;-143.84;72.13;45123.34;5031706;28;20485;-74
2021/12/28 09:10:33;;;;;;;6.03;5.50;;;;;;;-143.84;73.16;45130.94;5031778;28;20440;-74
2021/12/28 09:13:00;;;;;;;4.93;4.53;;;;;;;-143.84;74.54;45136.66;5032201;28;20445;-76
2021/12/28 09:15:28;;;;;;;6.17;5.67;;;;;;;-143.84;75.08;45161.41;5031898;28;20436;-74
2021/12/28 09:17:55;;;;;;;6.30;5.80;;;;;;;-143.84;76.03;45180.47;5028148;28;20441;-75
2021/12/28 09:20:26;;;;;;;5.93;5.07;;;;;;;-143.84;76.41;45167.13;5018576;28;20485;-74
2021/12/28 09:22:53;;;;;;;5.27;4.83;;;;;;;-143.84;76.94;45169.03;5022276;28;20455;-74
2021/12/28 09:25:21;;;;;;;5.13;4.63;;;;;;;-143.84;78.15;45161.41;5024803;28;21022;-74
2021/12/28 09:27:49;;;;;;;8.30;3.83;;;;;;;-143.84;78.50;45161.41;5026369;28;20475;-74
2021/12/28 09:30:17;;;;;;;6.83;5.00;;;;;;;-143.84;79.72;45150.00;5027639;28;20451;-74
2021/12/28 09:32:45;;;;;;;4.80;4.50;;;;;;;-143.84;80.04;45127.13;5028525;28;20463;-75
2021/12/28 09:35:14;;;;;;;6.60;4.60;;;;;;;-143.84;80.51;45172.84;5026277;28;20447;-75
2021/12/28 09:37:41;;;;;;;6.27;5.07;;;;;;;-143.84;80.65;45151.91;5027805;28;20460;-75
2021/12/28 09:40:12;;;;;;;6.20;5.60;;;;;;;-143.84;81.38;45129.03;5030145;28;20444;-75
2021/12/28 09:42:42;;;;;;;4.97;4.40;;;;;;;-143.84;81.67;45129.03;5029759;28;20454;-74
2021/12/28 09:45:12;;;;;;;5.60;5.10;;;;;;;-143.84;81.79;45132.84;5030342;28;20806;-75
2021/12/28 09:47:41;;;;;;;5.40;4.90;;;;;;;-143.84;81.75;45148.09;5029285;28;20993;-74
2021/12/28 09:50:11;;;;;;;7.07;5.90;;;;;;;-143.84;81.75;45100.47;5031029;28;20926;-75
2021/12/28 09:52:39;;;;;;;8.43;6.87;;;;;;;-143.84;80.90;45136.66;5029603;28;20539;-75
2021/12/28 09:55:07;;;;;;;7.50;6.80;;;;;;;-143.84;80.67;45129.03;5031127;28;20471;-75
2021/12/28 09:57:35;;;;;;;8.40;6.20;;;;;;;-143.84;80.95;45129.03;5030897;28;20456;-76
2021/12/28 10:00:07;;;;;;;7.20;4.90;;;;;;;-143.84;80.35;45119.53;5030588;28;20540;-74
2021/12/28 10:02:35;;;;;;;6.10;5.57;;;;;;;-143.84;79.65;45136.66;5031206;28;20468;-78
2021/12/28 10:05:06;;;;;;;6.73;5.73;;;;;;;-143.84;79.17;45132.84;5031642;28;20441;-72
2021/12/28 10:07:36;;;;;;;6.37;5.20;;;;;;;-143.84;79.09;45125.22;5030777;28;20452;-73
2021/12/28 10:10:06;;;;;;;15.60;7.83;;;;;;;-143.84;78.87;45117.63;5030861;28;20957;-74
2021/12/28 10:12:36;;;;;;;5.60;5.10;;;;;;;-143.84;78.68;45142.38;5029913;28;20516;-74
2021/12/28 10:15:08;;;;;;;8.23;6.60;;;;;;;-143.84;78.58;45123.34;5010647;28;20827;-74
2021/12/28 10:17:37;;;;;;;5.20;4.70;;;;;;;-143.84;78.37;45130.94;5010329;28;20454;-74
2021/12/28 10:20:09;;;;;;;6.30;5.70;;;;;;;-143.84;78.25;45144.28;5010442;28;20542;-74
2021/12/28 10:22:38;;;;;;;6.17;5.50;;;;;;;-143.84;77.68;45144.28;5010931;28;20517;-75
2021/12/28 10:25:09;;;;;;;7.70;6.90;;;;;;;-143.84;77.89;45132.84;5010690;28;20528;-74
2021/12/28 10:27:39;;;;;;;9.67;8.10;;;;;;;-143.84;78.71;45123.34;5010584;28;20538;-74
2021/12/28 10:30:15;;;;;;;6.97;6.27;;;;;;;-143.84;78.32;45119.53;5010759;28;20436;-76
2021/12/28 10:32:44;;;;;;;7.93;6.30;;;;;;;-143.84;78.58;45129.03;5010334;28;21024;-73
2021/12/28 10:35:16;;;;;;;8.60;6.43;;;;;;;-143.84;79.08;45159.50;5010297;28;20453;-74
2021/12/28 10:37:47;;;;;;;7.30;6.60;;;;;;;-143.84;79.28;45142.38;5012135;28;20878;-74
2021/12/28 10:40:21;;;;;;;8.80;7.27;;;;;;;-143.84;79.84;45136.66;5025907;28;20775;-74
2021/12/28 10:42:53;;;;;;;7.77;7.03;;;;;;;-143.84;79.56;45155.69;5031474;28;20453;-79
2021/12/28 10:45:26;;;;;;;9.63;6.40;;;;;;;-143.84;79.85;45148.09;5031752;28;20516;-78
2021/12/28 10:47:54;;;;;;;10.60;8.10;;;;;;;-143.84;80.27;45113.81;5029623;28;20441;-78
2021/12/28 10:50:34;;;;;;;9.03;7.90;;;;;;;-143.84;80.41;45146.19;5030016;28;20425;-79
2021/12/28 10:53:07;;;;;;;9.43;7.67;;;;;;;-143.84;80.44;45144.28;5032089;28;20509;-79
2021/12/28 10:55:35;;;;;;;9.97;7.53;;;;;;;-143.84;80.45;45159.50;5032143;28;20499;-79
2021/12/28 10:58:03;;;;;;;7.87;6.57;;;;;;;-143.84;80.49;45132.84;5031570;28;20515;-79
2021/12/28 11:00:35;;;;;;;9.00;7.80;;;;;;;-143.84;80.85;45130.94;5032134;28;20847;-76
2021/12/28 11:03:26;;;;;;;6.73;5.93;;;;;;;-143.84;80.80;45129.03;5032478;28;20432;-76
2021/12/28 11:05:54;;;;;;;12.53;5.30;;;;;;;-143.84;81.07;45159.50;5032139;28;20444;-76
2021/12/28 11:08:25;;;;;;;6.73;5.80;;;;;;;-143.84;81.32;45153.81;5032002;28;20468;-76
2021/12/28 11:10:54;;;;;;;5.77;5.20;;;;;;;-143.84;81.87;45148.09;5031583;28;20957;-76
2021/12/28 11:13:23;;;;;;;9.00;7.27;;;;;;;-143.84;81.88;45129.03;5032016;28;21023;-76
2021/12/28 11:15:52;;;;;;;7.63;6.83;;;;;;;-143.84;81.57;45144.28;5031862;28;20434;-76
2021/12/28 11:18:22;;;;;;;10.97;7.70;;;;;;;-143.84;81.53;45163.31;5032249;28;20418;-76
2021/12/28 11:20:51;;;;;;;7.50;6.60;;;;;;;-143.84;82.15;45127.13;5031387;28;20479;-76
2021/12/28 11:23:20;;;;;;;7.90;7.10;;;;;;;-143.84;82.46;45146.19;5031787;28;20447;-76